Time;durP1;ratioP1;P1;durP2;ratioP2;P2;SDS_P1;SDS_P2;PMS_P1;PMS_P2;Temp;Humidity;BMP_temperature;BMP_pressure;BME280_temperature;BME280_humidity;BME280_pressure;Samples;Min_cycle;Max_cycle;Signal;HPM_P1;HPM_P2
2023/01/09 00:00:47;;;;;;;5.22;2.53;;;;;;;;;;5044237;28;20041;-74
2023/01/09 00:03:13;;;;;;;4.95;2.20;;;;;;;;;;5048870;28;20432;-73
2023/01/09 00:05:39;;;;;;;4.97;2.95;;;;;;;;;;5044854;28;20108;-73
2023/01/09 00:08:05;;;;;;;4.47;2.42;;;;;;;;;;5034894;28;20095;-73
2023/01/09 00:10:31;;;;;;;3.92;2.28;;;;;;;;;;5035125;28;20076;-73
2023/01/09 00:12:57;;;;;;;4.03;2.20;;;;;;;;;;5034179;28;20484;-73
2023/01/09 00:15:23;;;;;;;4.43;2.65;;;;;;;;;;5033340;28;20506;-73
2023/01/09 00:17:49;;;;;;;7.57;2.63;;;;;;;;;;5043990;28;20132;-73
2023/01/09 00:20:15;;;;;;;3.08;2.15;;;;;;;;;;5036785;28;20461;-73
2023/01/09 00:22:41;;;;;;;2.90;2.05;;;;;;;;;;5033340;28;20049;-73
2023/01/09 00:25:07;;;;;;;2.83;1.90;;;;;;;;;;5033629;28;20546;-73
2023/01/09 00:27:34;;;;;;;1.95;1.70;;;;;;;;;;5042171;28;20127;-73
2023/01/09 00:30:00;;;;;;;4.18;2.38;;;;;;;;;;5035147;28;20064;-73
2023/01/09 00:32:27;;;;;;;3.65;1.98;;;;;;;;;;5035227;28;20045;-73
2023/01/09 00:34:54;;;;;;;2.67;1.80;;;;;;;;;;5045991;28;20179;-73
2023/01/09 00:37:20;;;;;;;5.25;2.03;;;;;;;;;;5043295;28;20434;-73
2023/01/09 00:39:46;;;;;;;4.15;2.15;;;;;;;;;;5033728;28;20610;-73
2023/01/09 00:42:22;;;;;;;4.85;2.00;;;;;;;;;;5030158;28;20416;-73
2023/01/09 00:44:53;;;;;;;7.13;2.58;;;;;;;;;;5036391;28;20045;-73
2023/01/09 00:47:24;;;;;;;5.85;2.22;;;;;;;;;;5036080;28;20098;-73
2023/01/09 00:49:51;;;;;;;8.38;2.72;;;;;;;;;;5032669;28;20041;-73
2023/01/09 00:52:18;;;;;;;5.63;2.20;;;;;;;;;;5032900;28;20060;-73
2023/01/09 00:54:44;;;;;;;6.22;2.70;;;;;;;;;;5068006;28;20041;-73
2023/01/09 00:57:11;;;;;;;5.82;2.33;;;;;;;;;;5031000;28;20041;-73
2023/01/09 00:59:37;;;;;;;8.00;2.40;;;;;;;;;;5032336;28;20052;-73
2023/01/09 01:02:03;;;;;;;6.97;2.30;;;;;;;;;;5037115;28;20053;-73
2023/01/09 01:09:58;;;;;;;14.30;3.45;;;;;;;;;;5041859;28;20045;-74
2023/01/09 01:12:25;;;;;;;12.18;3.08;;;;;;;;;;5038895;28;20052;-73
2023/01/09 01:14:51;;;;;;;12.95;2.72;;;;;;;;;;5035503;28;20060;-73
2023/01/09 01:17:17;;;;;;;7.35;2.35;;;;;;;;;;5036234;28;20108;-73
2023/01/09 01:19:43;;;;;;;11.15;2.78;;;;;;;;;;5034572;28;20037;-73
2023/01/09 01:22:09;;;;;;;9.70;2.65;;;;;;;;;;5030619;28;20056;-73
2023/01/09 01:24:35;;;;;;;9.48;2.60;;;;;;;;;;5034576;28;20037;-74
2023/01/09 01:27:01;;;;;;;9.68;2.50;;;;;;;;;;5032796;28;20130;-73
2023/01/09 01:29:27;;;;;;;7.55;2.58;;;;;;;;;;5034758;28;20049;-73
2023/01/09 01:31:54;;;;;;;7.05;2.85;;;;;;;;;;5037461;28;20052;-73
2023/01/09 01:34:20;;;;;;;8.05;2.38;;;;;;;;;;5042934;28;20055;-73
2023/01/09 01:36:46;;;;;;;8.75;2.60;;;;;;;;;;5042683;28;20048;-73
2023/01/09 01:39:12;;;;;;;12.40;2.75;;;;;;;;;;5032001;28;20041;-73
2023/01/09 01:41:38;;;;;;;9.85;2.53;;;;;;;;;;5032388;28;20049;-73
2023/01/09 01:44:05;;;;;;;14.43;2.97;;;;;;;;;;5034402;28;20396;-73
2023/01/09 01:46:32;;;;;;;10.98;3.00;;;;;;;;;;5033267;28;20049;-73
2023/01/09 01:49:05;;;;;;;9.43;2.33;;;;;;;;;;5035323;28;20090;-73
2023/01/09 01:51:32;;;;;;;9.55;2.60;;;;;;;;;;5034391;28;20049;-73
2023/01/09 01:53:59;;;;;;;11.05;2.60;;;;;;;;;;5033864;28;20053;-73
2023/01/09 01:56:25;;;;;;;6.30;2.10;;;;;;;;;;5027878;28;20057;-73
2023/01/09 01:58:51;;;;;;;9.35;2.50;;;;;;;;;;5033116;28;20048;-73
2023/01/09 02:01:18;;;;;;;14.00;2.70;;;;;;;;;;5034055;28;20048;-73
2023/01/09 02:03:44;;;;;;;10.32;2.28;;;;;;;;;;5038698;28;20052;-73
2023/01/09 02:06:11;;;;;;;14.68;2.95;;;;;;;;;;5033556;28;20049;-73
2023/01/09 02:08:37;;;;;;;10.23;2.85;;;;;;;;;;5034358;28;20099;-73
2023/01/09 02:11:04;;;;;;;8.65;2.38;;;;;;;;;;5032381;28;20068;-73
2023/01/09 02:13:30;;;;;;;6.28;2.88;;;;;;;;;;5029735;28;20052;-73
2023/01/09 02:16:02;;;;;;;9.00;2.00;;;;;;;;;;5033612;28;20110;-73
2023/01/09 02:18:35;;;;;;;12.43;2.85;;;;;;;;;;5041384;28;20040;-73
2023/01/09 02:21:06;;;;;;;12.18;3.00;;;;;;;;;;5042253;28;20539;-73
2023/01/09 02:23:48;;;;;;;11.63;3.25;;;;;;;;;;5037767;28;20120;-73
2023/01/09 02:26:23;;;;;;;13.48;2.60;;;;;;;;;;5029071;28;20057;-74
2023/01/09 02:28:59;;;;;;;14.80;3.08;;;;;;;;;;5033047;28;20034;-73
2023/01/09 02:31:31;;;;;;;13.55;2.65;;;;;;;;;;5030094;28;20055;-73
2023/01/09 02:34:18;;;;;;;10.02;2.55;;;;;;;;;;5039151;28;20044;-73
2023/01/09 02:36:50;;;;;;;14.95;3.05;;;;;;;;;;5034212;28;20138;-73
2023/01/09 02:39:27;;;;;;;11.55;2.60;;;;;;;;;;5031656;28;20408;-73
2023/01/09 02:41:58;;;;;;;10.02;2.95;;;;;;;;;;5031301;28;20540;-73
2023/01/09 02:44:25;;;;;;;15.43;3.00;;;;;;;;;;5029816;28;20114;-73
2023/01/09 02:47:01;;;;;;;11.02;2.58;;;;;;;;;;5032406;28;20056;-73
2023/01/09 02:49:27;;;;;;;14.10;2.97;;;;;;;;;;5047382;28;20114;-73
2023/01/09 02:51:57;;;;;;;8.70;2.65;;;;;;;;;;5033209;28;20041;-73
2023/01/09 02:54:39;;;;;;;11.77;3.00;;;;;;;;;;5034596;28;20044;-73
2023/01/09 02:57:11;;;;;;;10.05;2.67;;;;;;;;;;5031469;28;20136;-73
2023/01/09 02:59:56;;;;;;;10.70;2.92;;;;;;;;;;5029802;28;20049;-74
2023/01/09 03:02:39;;;;;;;12.77;3.17;;;;;;;;;;5036106;28;20045;-73
2023/01/09 03:05:11;;;;;;;11.88;2.45;;;;;;;;;;5046656;28;20048;-73
2023/01/09 03:07:39;;;;;;;10.88;2.85;;;;;;;;;;5051226;28;20037;-73
2023/01/09 03:10:10;;;;;;;10.95;2.38;;;;;;;;;;5045922;28;20033;-73
2023/01/09 03:12:37;;;;;;;7.15;2.13;;;;;;;;;;5044304;28;20037;-73
2023/01/09 03:15:04;;;;;;;13.35;2.72;;;;;;;;;;5048733;28;20041;-73
2023/01/09 03:17:35;;;;;;;8.27;3.00;;;;;;;;;;5044641;28;20045;-73
2023/01/09 03:20:02;;;;;;;13.20;3.22;;;;;;;;;;5053011;28;20036;-73
2023/01/09 03:22:28;;;;;;;9.35;2.92;;;;;;;;;;5043574;28;20064;-73
2023/01/09 03:24:54;;;;;;;8.30;2.60;;;;;;;;;;5043356;28;20049;-73
2023/01/09 03:27:20;;;;;;;5.78;2.70;;;;;;;;;;5048149;28;20051;-73
2023/01/09 03:29:46;;;;;;;8.38;2.80;;;;;;;;;;5045920;28;20032;-73
2023/01/09 03:32:12;;;;;;;10.20;3.33;;;;;;;;;;5046272;28;20506;-73
2023/01/09 03:34:38;;;;;;;7.95;2.88;;;;;;;;;;5046730;28;20036;-74
2023/01/09 03:37:04;;;;;;;5.28;3.15;;;;;;;;;;5044133;28;20053;-73
2023/01/09 03:39:31;;;;;;;9.77;4.10;;;;;;;;;;5036449;28;20393;-73
2023/01/09 03:41:57;;;;;;;9.68;3.60;;;;;;;;;;5051853;28;20540;-73
2023/01/09 03:44:23;;;;;;;12.02;3.85;;;;;;;;;;5040508;28;20497;-73
2023/01/09 03:46:49;;;;;;;10.05;3.45;;;;;;;;;;5036078;28;20053;-73
2023/01/09 03:49:16;;;;;;;11.73;4.03;;;;;;;;;;5045083;28;20078;-73
2023/01/09 03:51:42;;;;;;;9.18;4.15;;;;;;;;;;5077662;28;20045;-73
2023/01/09 03:54:09;;;;;;;8.23;3.85;;;;;;;;;;5048641;28;20053;-73
2023/01/09 03:56:35;;;;;;;7.28;3.30;;;;;;;;;;5047834;28;20136;-73
2023/01/09 03:59:01;;;;;;;9.88;3.70;;;;;;;;;;5049612;28;20584;-73
2023/01/09 04:01:27;;;;;;;10.10;3.75;;;;;;;;;;5041045;28;20053;-73
2023/01/09 04:03:53;;;;;;;9.77;4.22;;;;;;;;;;5045724;28;20047;-73
2023/01/09 04:06:19;;;;;;;8.98;4.28;;;;;;;;;;5047610;28;20411;-73
2023/01/09 04:08:45;;;;;;;10.00;4.03;;;;;;;;;;5042677;28;20048;-73
2023/01/09 04:11:11;;;;;;;17.10;4.63;;;;;;;;;;5045280;28;20103;-73
2023/01/09 04:13:37;;;;;;;13.52;4.30;;;;;;;;;;5039533;28;20048;-73
2023/01/09 04:16:03;;;;;;;11.25;4.78;;;;;;;;;;5045663;28;20108;-73
2023/01/09 04:18:29;;;;;;;11.30;4.20;;;;;;;;;;5039518;28;20343;-73
2023/01/09 04:20:55;;;;;;;10.70;5.18;;;;;;;;;;5035594;28;20098;-73
2023/01/09 04:23:21;;;;;;;10.57;5.40;;;;;;;;;;5037167;28;20456;-73
2023/01/09 04:25:47;;;;;;;10.65;5.90;;;;;;;;;;5044171;28;20102;-73
2023/01/09 04:28:14;;;;;;;12.18;7.60;;;;;;;;;;5036769;28;20048;-73
2023/01/09 04:30:40;;;;;;;15.63;8.82;;;;;;;;;;5037924;28;20563;-73
2023/01/09 04:33:06;;;;;;;16.63;9.10;;;;;;;;;;5044619;28;20052;-73
2023/01/09 04:35:32;;;;;;;17.85;9.48;;;;;;;;;;5038459;28;20057;-73
2023/01/09 04:37:59;;;;;;;15.93;9.10;;;;;;;;;;5033817;28;20045;-73
2023/01/09 04:40:25;;;;;;;13.88;7.90;;;;;;;;;;5035439;28;20060;-73
2023/01/09 04:42:51;;;;;;;14.10;8.40;;;;;;;;;;5035039;28;20052;-73
2023/01/09 04:45:17;;;;;;;13.77;7.70;;;;;;;;;;5034142;28;20103;-73
2023/01/09 04:47:43;;;;;;;13.38;8.13;;;;;;;;;;5034097;28;20369;-73
2023/01/09 04:50:11;;;;;;;12.60;7.97;;;;;;;;;;5031241;28;20057;-73
2023/01/09 04:52:37;;;;;;;12.32;7.72;;;;;;;;;;5034091;28;20049;-73
2023/01/09 04:55:04;;;;;;;11.43;8.48;;;;;;;;;;5035429;28;20175;-73
2023/01/09 04:57:30;;;;;;;15.15;8.55;;;;;;;;;;5035503;28;20454;-73
2023/01/09 04:59:56;;;;;;;14.15;8.70;;;;;;;;;;5034043;28;20040;-73
2023/01/09 05:02:22;;;;;;;16.02;8.88;;;;;;;;;;5034500;28;20182;-73
2023/01/09 05:04:48;;;;;;;14.10;8.73;;;;;;;;;;5044093;28;20186;-73
2023/01/09 05:07:14;;;;;;;11.55;8.00;;;;;;;;;;5033328;28;20079;-74
2023/01/09 05:09:40;;;;;;;14.57;8.80;;;;;;;;;;5033528;28;20048;-73
2023/01/09 05:12:06;;;;;;;15.75;9.90;;;;;;;;;;5032745;28;20095;-73
2023/01/09 05:14:32;;;;;;;19.25;9.90;;;;;;;;;;5032492;28;20048;-73
2023/01/09 05:16:58;;;;;;;18.35;9.43;;;;;;;;;;5033179;28;20057;-73
2023/01/09 05:19:24;;;;;;;17.08;9.73;;;;;;;;;;5033325;28;20040;-73
2023/01/09 05:21:50;;;;;;;17.23;9.13;;;;;;;;;;5042579;28;20040;-73
2023/01/09 05:24:16;;;;;;;16.48;10.15;;;;;;;;;;5033380;28;20419;-73
2023/01/09 05:26:42;;;;;;;15.57;9.57;;;;;;;;;;5033167;28;20049;-73
2023/01/09 05:29:09;;;;;;;18.05;9.82;;;;;;;;;;5030907;28;20653;-73
2023/01/09 05:31:35;;;;;;;16.58;9.20;;;;;;;;;;5037656;28;20041;-73
2023/01/09 05:34:01;;;;;;;15.57;9.77;;;;;;;;;;5037479;28;20079;-73
2023/01/09 05:36:28;;;;;;;16.60;9.57;;;;;;;;;;5034529;28;20147;-73
2023/01/09 05:38:56;;;;;;;18.65;9.80;;;;;;;;;;5032477;28;20047;-73
2023/01/09 05:41:22;;;;;;;15.20;9.30;;;;;;;;;;5032162;28;20048;-73
2023/01/09 05:43:48;;;;;;;16.45;9.82;;;;;;;;;;5032034;28;20063;-73
2023/01/09 05:46:15;;;;;;;19.33;9.88;;;;;;;;;;5029260;28;20492;-73
2023/01/09 05:48:41;;;;;;;15.93;9.35;;;;;;;;;;5033690;28;20052;-73
2023/01/09 05:51:07;;;;;;;12.13;8.73;;;;;;;;;;5032237;28;20052;-73
2023/01/09 05:53:33;;;;;;;14.18;8.27;;;;;;;;;;5034633;28;20045;-73
2023/01/09 05:55:59;;;;;;;13.55;8.77;;;;;;;;;;5038754;28;20103;-73
2023/01/09 05:58:25;;;;;;;13.05;8.63;;;;;;;;;;5036740;28;20692;-73
2023/01/09 06:00:52;;;;;;;11.45;7.90;;;;;;;;;;5033226;28;20076;-73
2023/01/09 06:03:18;;;;;;;15.80;8.60;;;;;;;;;;5039957;28;20072;-73
2023/01/09 06:05:44;;;;;;;13.45;8.20;;;;;;;;;;5043707;28;20064;-73
2023/01/09 06:08:10;;;;;;;17.13;9.02;;;;;;;;;;5040104;28;20130;-73
2023/01/09 06:10:36;;;;;;;11.65;8.63;;;;;;;;;;5043380;28;20564;-73
2023/01/09 06:13:02;;;;;;;14.80;9.77;;;;;;;;;;5044027;28;20086;-73
2023/01/09 06:15:28;;;;;;;13.93;9.45;;;;;;;;;;5036506;28;20053;-73
2023/01/09 06:17:54;;;;;;;23.45;13.68;;;;;;;;;;5041878;28;20041;-73
2023/01/09 06:20:21;;;;;;;15.75;10.88;;;;;;;;;;5042333;28;20126;-73
2023/01/09 06:22:50;;;;;;;14.43;10.75;;;;;;;;;;5043502;28;20045;-73
2023/01/09 06:25:16;;;;;;;17.98;11.43;;;;;;;;;;5036886;28;20116;-73
2023/01/09 06:27:42;;;;;;;17.13;10.88;;;;;;;;;;5037086;28;20046;-73
2023/01/09 06:30:09;;;;;;;17.45;11.45;;;;;;;;;;5038544;28;20076;-73
2023/01/09 06:32:35;;;;;;;16.35;10.48;;;;;;;;;;5033715;28;20044;-73
2023/01/09 06:35:01;;;;;;;14.77;10.23;;;;;;;;;;5038180;28;20140;-73
2023/01/09 06:37:27;;;;;;;17.35;11.50;;;;;;;;;;5033379;28;20087;-73
2023/01/09 06:39:53;;;;;;;16.75;10.20;;;;;;;;;;5033022;28;20547;-73
2023/01/09 06:42:20;;;;;;;14.90;9.85;;;;;;;;;;5045174;28;20065;-73
2023/01/09 06:44:46;;;;;;;12.40;9.63;;;;;;;;;;5041006;28;20037;-73
2023/01/09 06:47:13;;;;;;;17.23;11.10;;;;;;;;;;5044704;28;20049;-73
2023/01/09 06:49:39;;;;;;;17.73;11.27;;;;;;;;;;5039701;28;20037;-73
2023/01/09 06:52:06;;;;;;;17.80;10.80;;;;;;;;;;5044520;28;20084;-72
2023/01/09 06:54:33;;;;;;;14.82;11.30;;;;;;;;;;5045730;28;20045;-74
2023/01/09 06:56:59;;;;;;;14.98;10.68;;;;;;;;;;5043400;28;20042;-73
2023/01/09 06:59:25;;;;;;;17.42;12.20;;;;;;;;;;5047813;28;20045;-73
2023/01/09 07:01:51;;;;;;;18.48;12.68;;;;;;;;;;5048784;28;20367;-73
2023/01/09 07:04:20;;;;;;;16.52;12.35;;;;;;;;;;5046061;28;20103;-74
2023/01/09 07:06:47;;;;;;;16.05;12.32;;;;;;;;;;5049146;28;20059;-73
2023/01/09 07:09:13;;;;;;;15.90;11.65;;;;;;;;;;5040796;28;20124;-73
2023/01/09 07:11:39;;;;;;;14.32;11.65;;;;;;;;;;5050074;28;20404;-73
2023/01/09 07:14:05;;;;;;;19.77;12.70;;;;;;;;;;5047574;28;20128;-74
2023/01/09 07:16:32;;;;;;;19.52;11.90;;;;;;;;;;5047525;28;20081;-73
2023/01/09 07:18:58;;;;;;;17.88;11.70;;;;;;;;;;5048090;28;20087;-73
2023/01/09 07:21:24;;;;;;;18.75;11.85;;;;;;;;;;5040559;28;20091;-73
2023/01/09 07:23:50;;;;;;;16.85;11.43;;;;;;;;;;5047290;28;20077;-73
2023/01/09 07:26:16;;;;;;;21.25;11.82;;;;;;;;;;5047344;28;20087;-73
2023/01/09 07:28:42;;;;;;;14.73;11.52;;;;;;;;;;5048687;28;20126;-73
2023/01/09 07:31:08;;;;;;;18.63;11.50;;;;;;;;;;5047876;28;20133;-74
2023/01/09 07:33:34;;;;;;;19.30;12.02;;;;;;;;;;5057177;28;20115;-73
2023/01/09 07:36:00;;;;;;;17.40;12.20;;;;;;;;;;5055744;28;20059;-73
2023/01/09 07:38:26;;;;;;;15.88;11.63;;;;;;;;;;5056450;28;20139;-73
2023/01/09 07:40:52;;;;;;;17.95;12.10;;;;;;;;;;5056772;28;20076;-73
2023/01/09 07:43:18;;;;;;;16.52;11.50;;;;;;;;;;5060344;28;20467;-73
2023/01/09 07:45:46;;;;;;;16.15;11.00;;;;;;;;;;5053302;28;20162;-73
2023/01/09 07:48:12;;;;;;;15.95;11.00;;;;;;;;;;5056306;28;20491;-74
2023/01/09 07:50:38;;;;;;;19.65;12.35;;;;;;;;;;5058539;28;20044;-74
2023/01/09 07:53:04;;;;;;;16.25;11.73;;;;;;;;;;5043403;28;20079;-74
2023/01/09 07:55:30;;;;;;;20.30;12.07;;;;;;;;;;5055254;28;20122;-74
2023/01/09 07:57:56;;;;;;;16.42;11.05;;;;;;;;;;5057253;28;20045;-73
2023/01/09 08:00:22;;;;;;;16.92;12.07;;;;;;;;;;5070397;28;20045;-73
2023/01/09 08:02:52;;;;;;;15.55;11.63;;;;;;;;;;5039376;28;20041;-73
2023/01/09 08:05:18;;;;;;;16.77;11.07;;;;;;;;;;5050550;28;20047;-73
2023/01/09 08:07:44;;;;;;;16.42;10.32;;;;;;;;;;5049564;28;20051;-73
2023/01/09 08:10:11;;;;;;;15.50;10.07;;;;;;;;;;5048289;28;20052;-73
2023/01/09 08:12:37;;;;;;;14.07;10.02;;;;;;;;;;5036925;28;20045;-73
2023/01/09 08:15:03;;;;;;;14.35;9.63;;;;;;;;;;5060131;28;20056;-73
2023/01/09 08:17:29;;;;;;;13.55;9.40;;;;;;;;;;5049315;28;20478;-73
2023/01/09 08:19:55;;;;;;;15.52;10.68;;;;;;;;;;5058805;28;20118;-73
2023/01/09 08:22:21;;;;;;;14.23;8.70;;;;;;;;;;5041452;28;20179;-73
2023/01/09 08:24:47;;;;;;;11.80;9.00;;;;;;;;;;5047173;28;20048;-73
2023/01/09 08:27:13;;;;;;;13.48;8.15;;;;;;;;;;5042569;28;20041;-73
2023/01/09 08:29:39;;;;;;;10.48;8.13;;;;;;;;;;5050496;28;20084;-73
2023/01/09 08:32:05;;;;;;;11.77;7.68;;;;;;;;;;5043745;28;20094;-73
2023/01/09 08:34:31;;;;;;;13.40;7.80;;;;;;;;;;5038025;28;20046;-73
2023/01/09 08:36:58;;;;;;;10.73;6.88;;;;;;;;;;5037251;28;20093;-73
2023/01/09 08:39:24;;;;;;;11.80;7.32;;;;;;;;;;5046800;28;20049;-73
2023/01/09 08:47:21;;;;;;;10.82;6.40;;;;;;;;;;5038247;28;20049;-73
2023/01/09 08:49:47;;;;;;;8.95;6.07;;;;;;;;;;5036489;28;20559;-73
2023/01/09 08:52:13;;;;;;;10.50;6.00;;;;;;;;;;5046070;28;20095;-73
2023/01/09 08:54:40;;;;;;;9.32;6.15;;;;;;;;;;5039997;28;20675;-73
2023/01/09 08:57:06;;;;;;;9.55;5.88;;;;;;;;;;5040719;28;20057;-73
2023/01/09 08:59:32;;;;;;;10.73;6.18;;;;;;;;;;5036563;28;20102;-74
2023/01/09 09:01:58;;;;;;;10.45;5.93;;;;;;;;;;5035895;28;20047;-74
2023/01/09 09:04:24;;;;;;;11.93;6.40;;;;;;;;;;5043995;28;20112;-73
2023/01/09 09:06:50;;;;;;;9.35;6.20;;;;;;;;;;5035607;28;20553;-73
2023/01/09 09:09:17;;;;;;;14.55;7.18;;;;;;;;;;5031325;28;20046;-73
2023/01/09 09:11:43;;;;;;;9.75;6.85;;;;;;;;;;5039736;28;20049;-73
2023/01/09 09:16:54;;;;;;;13.02;6.68;;;;;;;;;;5031567;28;20045;-73
2023/01/09 09:19:20;;;;;;;9.70;7.03;;;;;;;;;;5031546;28;20077;-73
2023/01/09 09:21:46;;;;;;;12.30;6.68;;;;;;;;;;5039070;28;20052;-73
2023/01/09 09:24:12;;;;;;;12.68;6.68;;;;;;;;;;5039782;28;20485;-73
2023/01/09 09:26:38;;;;;;;13.15;7.18;;;;;;;;;;5044054;28;20059;-73
2023/01/09 09:29:04;;;;;;;12.20;7.13;;;;;;;;;;5043090;28;20479;-73
2023/01/09 09:31:30;;;;;;;9.48;6.68;;;;;;;;;;5036674;28;20037;-73
2023/01/09 09:33:57;;;;;;;10.48;6.80;;;;;;;;;;5037233;28;20061;-73
2023/01/09 09:36:23;;;;;;;10.88;7.38;;;;;;;;;;5036804;28;20464;-73
2023/01/09 09:38:49;;;;;;;9.82;6.68;;;;;;;;;;5038355;28;20041;-73
2023/01/09 09:44:45;;;;;;;9.82;7.07;;;;;;;;;;5039285;28;20129;-73
2023/01/09 09:47:11;;;;;;;12.38;7.10;;;;;;;;;;5041524;28;20044;-73
2023/01/09 09:49:47;;;;;;;12.82;7.57;;;;;;;;;;5030890;28;20119;-73
2023/01/09 09:52:20;;;;;;;10.07;6.78;;;;;;;;;;5037049;28;20546;-73
2023/01/09 09:54:49;;;;;;;8.93;7.10;;;;;;;;;;5034610;28;20037;-73
2023/01/09 09:57:17;;;;;;;11.65;6.90;;;;;;;;;;5037083;28;20052;-73
2023/01/09 09:59:44;;;;;;;10.98;6.65;;;;;;;;;;5038888;28;20079;-73
2023/01/09 10:02:28;;;;;;;10.95;6.93;;;;;;;;;;5066934;28;20132;-73
2023/01/09 10:04:58;;;;;;;9.93;6.43;;;;;;;;;;5043637;28;20053;-73
2023/01/09 10:07:30;;;;;;;11.82;6.97;;;;;;;;;;5051376;28;20425;-73
2023/01/09 10:09:59;;;;;;;15.50;7.25;;;;;;;;;;5047181;28;20049;-73
2023/01/09 10:12:26;;;;;;;11.88;6.75;;;;;;;;;;5043584;28;20480;-73
2023/01/09 10:14:52;;;;;;;12.48;7.10;;;;;;;;;;5047720;28;20053;-73
2023/01/09 10:17:37;;;;;;;10.10;6.90;;;;;;;;;;5053857;28;20041;-73
2023/01/09 10:20:22;;;;;;;8.13;6.32;;;;;;;;;;5039988;28;20041;-73
2023/01/09 10:22:48;;;;;;;11.30;6.70;;;;;;;;;;5069918;28;20073;-74
2023/01/09 10:25:17;;;;;;;9.88;6.60;;;;;;;;;;5038687;28;20040;-73
2023/01/09 10:27:46;;;;;;;10.95;6.35;;;;;;;;;;5035764;28;20037;-73
2023/01/09 10:30:23;;;;;;;8.57;6.63;;;;;;;;;;5034803;28;20041;-73
2023/01/09 10:33:07;;;;;;;10.68;6.70;;;;;;;;;;5040249;28;20055;-73
2023/01/09 10:35:52;;;;;;;9.15;6.50;;;;;;;;;;5040447;28;20056;-73
2023/01/09 10:38:22;;;;;;;10.18;6.45;;;;;;;;;;5035776;28;20057;-74
2023/01/09 10:40:51;;;;;;;11.30;6.53;;;;;;;;;;5040309;28;20076;-74
2023/01/09 10:43:31;;;;;;;9.75;6.10;;;;;;;;;;5041607;28;20504;-73
2023/01/09 10:46:02;;;;;;;8.98;6.47;;;;;;;;;;5038985;28;20053;-73
2023/01/09 10:48:31;;;;;;;9.63;6.82;;;;;;;;;;5041565;28;20376;-73
2023/01/09 10:50:58;;;;;;;12.18;6.82;;;;;;;;;;5036564;28;20033;-73
2023/01/09 10:53:29;;;;;;;11.63;8.02;;;;;;;;;;5038091;28;20072;-73
2023/01/09 10:56:00;;;;;;;11.63;7.03;;;;;;;;;;5038398;28;20106;-73
2023/01/09 10:58:27;;;;;;;11.55;7.35;;;;;;;;;;5043904;28;20384;-73
2023/01/09 11:00:55;;;;;;;11.15;7.78;;;;;;;;;;5037299;28;20053;-73
2023/01/09 11:03:22;;;;;;;11.23;8.25;;;;;;;;;;5038638;28;20400;-74
2023/01/09 11:05:52;;;;;;;11.98;7.80;;;;;;;;;;5043534;28;20056;-73
2023/01/09 11:08:24;;;;;;;14.93;8.45;;;;;;;;;;5045234;28;20450;-73
2023/01/09 11:10:57;;;;;;;11.00;8.23;;;;;;;;;;5052309;28;20404;-73
2023/01/09 11:13:28;;;;;;;11.23;7.70;;;;;;;;;;5037035;28;20049;-73
2023/01/09 11:16:09;;;;;;;13.63;8.45;;;;;;;;;;5070165;28;20082;-73
2023/01/09 11:18:53;;;;;;;13.80;9.38;;;;;;;;;;5039684;28;20049;-73
2023/01/09 11:21:36;;;;;;;14.98;9.32;;;;;;;;;;5050748;28;20057;-73
2023/01/09 11:24:17;;;;;;;15.60;9.50;;;;;;;;;;5045987;28;20045;-73
2023/01/09 11:26:44;;;;;;;14.55;9.25;;;;;;;;;;5050365;28;20053;-73
2023/01/09 11:29:12;;;;;;;14.93;9.52;;;;;;;;;;5051478;28;20172;-74
2023/01/09 11:31:39;;;;;;;16.88;9.93;;;;;;;;;;5043674;28;20447;-74
2023/01/09 11:34:06;;;;;;;15.35;9.23;;;;;;;;;;5066160;28;20392;-73
2023/01/09 11:36:32;;;;;;;13.88;9.00;;;;;;;;;;5037181;28;20053;-74
2023/01/09 11:38:59;;;;;;;14.25;9.15;;;;;;;;;;5040572;28;20098;-73
2023/01/09 11:41:27;;;;;;;14.60;8.70;;;;;;;;;;5034222;28;20045;-73
2023/01/09 11:43:55;;;;;;;15.65;9.77;;;;;;;;;;5035806;28;20048;-74
2023/01/09 11:46:32;;;;;;;15.82;8.98;;;;;;;;;;5042335;28;20484;-73
2023/01/09 11:48:59;;;;;;;11.55;8.68;;;;;;;;;;5040031;28;21542;-74
2023/01/09 11:51:25;;;;;;;14.48;8.80;;;;;;;;;;5038001;28;20037;-73
2023/01/09 11:54:00;;;;;;;14.35;8.48;;;;;;;;;;5033874;28;20053;-73
2023/01/09 11:56:26;;;;;;;13.00;7.88;;;;;;;;;;5036104;28;20080;-74
2023/01/09 11:58:52;;;;;;;11.10;7.82;;;;;;;;;;5034126;28;20132;-73
2023/01/09 12:01:27;;;;;;;14.27;7.97;;;;;;;;;;5041545;28;20148;-72
2023/01/09 12:04:02;;;;;;;13.50;7.55;;;;;;;;;;5042399;28;20041;-73
2023/01/09 12:06:52;;;;;;;18.17;8.02;;;;;;;;;;5072148;28;20443;-74
2023/01/09 12:09:30;;;;;;;11.57;7.32;;;;;;;;;;5022824;28;20053;-73
2023/01/09 12:12:01;;;;;;;12.75;7.85;;;;;;;;;;5051311;28;20395;-73
2023/01/09 12:14:41;;;;;;;13.98;6.80;;;;;;;;;;5035176;28;20045;-74
2023/01/09 12:17:07;;;;;;;15.02;7.47;;;;;;;;;;5051965;28;20459;-73
2023/01/09 12:19:36;;;;;;;13.63;6.40;;;;;;;;;;5063325;28;20544;-73
2023/01/09 12:22:32;;;;;;;15.05;5.78;;;;;;;;;;5057267;28;20059;-73
2023/01/09 12:24:58;;;;;;;13.38;5.32;;;;;;;;;;5067851;28;20045;-74
2023/01/09 12:27:24;;;;;;;14.90;5.30;;;;;;;;;;5050520;28;20561;-73
2023/01/09 12:29:53;;;;;;;13.23;5.32;;;;;;;;;;5072964;28;20044;-74
2023/01/09 12:32:28;;;;;;;11.50;4.22;;;;;;;;;;5065087;28;20071;-73
2023/01/09 12:35:06;;;;;;;11.93;3.92;;;;;;;;;;5045093;28;20068;-74
2023/01/09 12:37:38;;;;;;;9.35;3.85;;;;;;;;;;5050148;28;20045;-73
2023/01/09 12:40:16;;;;;;;8.18;3.15;;;;;;;;;;5033993;28;20044;-73
2023/01/09 12:42:42;;;;;;;11.45;3.50;;;;;;;;;;5041868;28;20370;-74
2023/01/09 12:45:19;;;;;;;10.70;3.33;;;;;;;;;;5034926;28;20501;-74
2023/01/09 12:47:46;;;;;;;10.45;3.58;;;;;;;;;;5040629;28;20102;-73
2023/01/09 12:50:31;;;;;;;7.40;3.55;;;;;;;;;;5039716;28;20049;-74
2023/01/09 12:53:23;;;;;;;9.75;3.35;;;;;;;;;;5035703;28;20053;-74
2023/01/09 12:55:57;;;;;;;9.07;3.03;;;;;;;;;;5065613;28;20061;-74
2023/01/09 12:58:30;;;;;;;14.82;3.15;;;;;;;;;;5043065;28;20107;-73
2023/01/09 13:00:57;;;;;;;11.23;3.25;;;;;;;;;;5030961;28;20041;-74
2023/01/09 13:03:27;;;;;;;10.57;3.83;;;;;;;;;;5035172;28;20098;-73
2023/01/09 13:05:53;;;;;;;10.32;3.63;;;;;;;;;;5046259;28;20064;-74
2023/01/09 13:08:22;;;;;;;9.75;3.60;;;;;;;;;;5036245;28;20147;-74
2023/01/09 13:10:52;;;;;;;10.77;4.45;;;;;;;;;;5042902;28;20481;-74
2023/01/09 13:13:30;;;;;;;15.93;3.92;;;;;;;;;;5038516;28;20045;-74
2023/01/09 13:16:02;;;;;;;12.50;3.67;;;;;;;;;;5039149;28;20049;-73
2023/01/09 13:18:31;;;;;;;10.57;3.40;;;;;;;;;;5032937;28;20045;-73
2023/01/09 13:20:57;;;;;;;13.50;3.70;;;;;;;;;;5035969;28;20557;-73
2023/01/09 13:23:32;;;;;;;12.95;3.65;;;;;;;;;;5039659;28;20041;-74
2023/01/09 13:25:59;;;;;;;8.70;3.97;;;;;;;;;;5039210;28;20176;-73
2023/01/09 13:28:37;;;;;;;13.02;3.63;;;;;;;;;;5041013;28;22132;-74
2023/01/09 13:31:21;;;;;;;11.32;3.80;;;;;;;;;;5036250;28;20492;-74
2023/01/09 13:33:55;;;;;;;14.20;3.58;;;;;;;;;;5043499;28;20038;-74
2023/01/09 13:36:31;;;;;;;12.25;3.88;;;;;;;;;;5065331;28;20057;-73
2023/01/09 13:38:59;;;;;;;11.13;3.40;;;;;;;;;;5039197;28;20053;-73
2023/01/09 13:44:18;;;;;;;10.60;3.15;;;;;;;;;;5032457;28;20041;-73
2023/01/09 13:46:46;;;;;;;12.23;3.45;;;;;;;;;;5040774;28;20413;-73
2023/01/09 13:49:31;;;;;;;11.43;3.50;;;;;;;;;;5032421;28;20160;-73
2023/01/09 13:52:01;;;;;;;17.88;4.05;;;;;;;;;;5036134;28;20128;-73
2023/01/09 13:54:54;;;;;;;12.20;3.90;;;;;;;;;;5045152;28;20056;-73
2023/01/09 13:57:20;;;;;;;17.15;4.13;;;;;;;;;;5040639;28;20084;-74
2023/01/09 13:59:47;;;;;;;18.15;3.70;;;;;;;;;;5046611;28;20044;-74
2023/01/09 14:02:33;;;;;;;16.90;4.18;;;;;;;;;;5056069;28;20134;-74
2023/01/09 14:04:59;;;;;;;16.75;4.20;;;;;;;;;;5059996;28;20037;-74
2023/01/09 14:07:27;;;;;;;12.13;4.18;;;;;;;;;;5046381;28;20534;-74
2023/01/09 14:09:57;;;;;;;14.52;4.18;;;;;;;;;;5042051;28;20037;-73
2023/01/09 14:12:24;;;;;;;15.73;3.80;;;;;;;;;;5047807;28;20080;-73
2023/01/09 14:14:52;;;;;;;15.82;3.90;;;;;;;;;;5044061;28;20053;-73
2023/01/09 14:17:25;;;;;;;13.35;3.10;;;;;;;;;;5043548;28;20076;-73
2023/01/09 14:19:55;;;;;;;10.20;3.47;;;;;;;;;;5043705;28;20134;-73
2023/01/09 14:22:26;;;;;;;8.85;2.95;;;;;;;;;;5049214;28;20095;-74
2023/01/09 14:24:55;;;;;;;13.30;3.47;;;;;;;;;;5044434;28;20040;-73
2023/01/09 14:27:39;;;;;;;14.43;4.63;;;;;;;;;;5058792;28;20053;-73
2023/01/09 14:30:24;;;;;;;15.05;3.63;;;;;;;;;;5052465;28;20048;-73
2023/01/09 14:33:03;;;;;;;17.45;4.85;;;;;;;;;;5048663;28;20048;-73
2023/01/09 14:35:35;;;;;;;12.50;4.43;;;;;;;;;;5048018;28;20056;-73
2023/01/09 14:38:04;;;;;;;17.85;4.50;;;;;;;;;;5043073;28;20037;-73
2023/01/09 14:40:31;;;;;;;19.50;4.60;;;;;;;;;;5042007;28;20048;-76
2023/01/09 14:42:59;;;;;;;13.38;4.45;;;;;;;;;;5043018;28;20057;-73
2023/01/09 14:45:26;;;;;;;14.85;4.28;;;;;;;;;;5042590;28;20044;-73
2023/01/09 14:47:58;;;;;;;16.38;4.60;;;;;;;;;;5047183;28;20049;-73
2023/01/09 14:50:30;;;;;;;17.25;3.90;;;;;;;;;;5040373;28;20049;-74
2023/01/09 14:53:05;;;;;;;17.45;4.80;;;;;;;;;;5047178;28;20041;-72
2023/01/09 14:55:31;;;;;;;16.98;4.72;;;;;;;;;;5049615;28;20044;-73
2023/01/09 14:58:09;;;;;;;16.38;4.25;;;;;;;;;;5059104;28;20116;-73
2023/01/09 15:00:35;;;;;;;20.70;5.13;;;;;;;;;;5055238;28;20380;-73